N805AB KCVG-
Flight info
| Callsign | N805AB |
|---|---|
| Flight time | N/A |
| Altitude | VFR/035 |
| Route | |
| Aircraft | C160/M-VGD/C |
Departure
| Time | 2026-04-30 02:03 |
|---|---|
| Airport | Cincinnati Northern Kentucky International Airport (KCVG) |
Arrival
| Time | N/A |
|---|---|
| Airport | - |
| Time | Latitude | Longitude | Altitude | Speed | Heading |
|---|---|---|---|---|---|
| 2026-04-30 01:58 | 39.04331 | -84.65602 | 881 ft | 0 kts | 90° |
| 2026-04-30 02:00 | 39.04331 | -84.65599 | 881 ft | 2 kts | 76° |
| 2026-04-30 02:00 | 39.04350 | -84.65592 | 881 ft | 6 kts | 13° |
| 2026-04-30 02:01 | 39.04404 | -84.65582 | 880 ft | 12 kts | 357° |
| 2026-04-30 02:01 | 39.04469 | -84.65538 | 880 ft | 12 kts | 86° |
| 2026-04-30 02:01 | 39.04468 | -84.65389 | 882 ft | 18 kts | 90° |
| 2026-04-30 02:01 | 39.04503 | -84.65300 | 883 ft | 11 kts | 2° |
| 2026-04-30 02:02 | 39.04527 | -84.65300 | 883 ft | 0 kts | 0° |
| 2026-04-30 02:02 | 39.04556 | -84.65299 | 883 ft | 17 kts | 0° |
| 2026-04-30 02:02 | 39.04630 | -84.65429 | 882 ft | 41 kts | 269° |
| 2026-04-30 02:02 | 39.04630 | -84.66131 | 874 ft | 112 kts | 270° |
| 2026-04-30 02:03 | 39.04629 | -84.67339 | 942 ft | 155 kts | 272° |
| 2026-04-30 02:03 | 39.04646 | -84.68846 | 1224 ft | 184 kts | 274° |
| 2026-04-30 02:03 | 39.04658 | -84.70612 | 1420 ft | 208 kts | 272° |
| 2026-04-30 02:03 | 39.04724 | -84.72494 | 1723 ft | 216 kts | 278° |
| 2026-04-30 02:04 | 39.04839 | -84.74442 | 2009 ft | 220 kts | 277° |
| 2026-04-30 02:04 | 39.04928 | -84.76416 | 2292 ft | 223 kts | 277° |
| 2026-04-30 02:04 | 39.05006 | -84.78434 | 2439 ft | 229 kts | 276° |
| 2026-04-30 02:04 | 39.05208 | -84.80440 | 2762 ft | 221 kts | 288° |
| 2026-04-30 02:05 | 39.05835 | -84.82149 | 3378 ft | 205 kts | 306° |
| 2026-04-30 02:05 | 39.06877 | -84.83525 | 3268 ft | 225 kts | 324° |
| 2026-04-30 02:05 | 39.08345 | -84.84245 | 3364 ft | 230 kts | 347° |
| 2026-04-30 02:05 | 39.09932 | -84.84565 | 3263 ft | 237 kts | 349° |
| 2026-04-30 02:06 | 39.11567 | -84.84816 | 3340 ft | 237 kts | 351° |
| 2026-04-30 02:06 | 39.13193 | -84.85064 | 3468 ft | 233 kts | 350° |
| 2026-04-30 02:06 | 39.14794 | -84.85336 | 3639 ft | 232 kts | 349° |
| 2026-04-30 02:06 | 39.16405 | -84.85631 | 3660 ft | 235 kts | 349° |
| 2026-04-30 02:07 | 39.18024 | -84.85956 | 3676 ft | 236 kts | 348° |
| 2026-04-30 02:07 | 39.19647 | -84.86313 | 3686 ft | 237 kts | 347° |
| 2026-04-30 02:07 | 39.21266 | -84.86698 | 3734 ft | 236 kts | 346° |
| 2026-04-30 02:07 | 39.22882 | -84.87121 | 3703 ft | 239 kts | 346° |
| 2026-04-30 02:08 | 39.24522 | -84.87580 | 3568 ft | 243 kts | 345° |
| 2026-04-30 02:08 | 39.26175 | -84.88052 | 3511 ft | 243 kts | 345° |
| 2026-04-30 02:08 | 39.27850 | -84.88483 | 3279 ft | 249 kts | 347° |
| 2026-04-30 02:08 | 39.29549 | -84.88798 | 3086 ft | 250 kts | 349° |
| 2026-04-30 02:09 | 39.31258 | -84.89092 | 3107 ft | 244 kts | 350° |
| 2026-04-30 02:09 | 39.32925 | -84.89373 | 3239 ft | 237 kts | 350° |
| 2026-04-30 02:09 | 39.34526 | -84.89630 | 3528 ft | 230 kts | 350° |
| 2026-04-30 02:09 | 39.36124 | -84.89876 | 3597 ft | 232 kts | 350° |
| 2026-04-30 02:10 | 39.37718 | -84.90135 | 3797 ft | 228 kts | 349° |
| 2026-04-30 02:10 | 39.38764 | -84.90310 | 3846 ft | 230 kts | 350° |
| 2026-04-30 02:10 | 39.40364 | -84.90591 | 3848 ft | 234 kts | 349° |
| 2026-04-30 02:10 | 39.41992 | -84.90576 | 3963 ft | 236 kts | 1° |
| 2026-04-30 02:11 | 39.43624 | -84.90287 | 4088 ft | 236 kts | 9° |
| 2026-04-30 02:11 | 39.45530 | -84.88939 | 4275 ft | 247 kts | 34° |
| 2026-04-30 02:11 | 39.46756 | -84.87331 | 4246 ft | 255 kts | 45° |
| 2026-04-30 02:11 | 39.47827 | -84.85474 | 4246 ft | 258 kts | 50° |
| 2026-04-30 02:12 | 39.48472 | -84.84169 | 4179 ft | 263 kts | 55° |
| 2026-04-30 02:12 | 39.49254 | -84.81986 | 4058 ft | 269 kts | 64° |
| 2026-04-30 02:12 | 39.49905 | -84.79698 | 3921 ft | 273 kts | 66° |
| 2026-04-30 02:12 | 39.50568 | -84.77376 | 3694 ft | 276 kts | 65° |
| 2026-04-30 02:13 | 39.51263 | -84.75057 | 3502 ft | 277 kts | 64° |
| 2026-04-30 02:13 | 39.51980 | -84.72722 | 3208 ft | 279 kts | 64° |
| 2026-04-30 02:13 | 39.52695 | -84.70412 | 3115 ft | 274 kts | 64° |
| 2026-04-30 02:13 | 39.53337 | -84.68165 | 3450 ft | 256 kts | 67° |
| 2026-04-30 02:14 | 39.53506 | -84.65859 | 3182 ft | 274 kts | 97° |
| 2026-04-30 02:14 | 39.52403 | -84.63781 | 2823 ft | 286 kts | 148° |
| 2026-04-30 02:14 | 39.50602 | -84.62852 | 2969 ft | 273 kts | 162° |
| 2026-04-30 02:14 | 39.49008 | -84.61607 | 3056 ft | 282 kts | 141° |
| 2026-04-30 02:15 | 39.47450 | -84.59893 | 2794 ft | 302 kts | 139° |
| 2026-04-30 02:15 | 39.45831 | -84.58094 | 2649 ft | 311 kts | 139° |
| 2026-04-30 02:15 | 39.44177 | -84.56272 | 2571 ft | 313 kts | 139° |
| 2026-04-30 02:15 | 39.42528 | -84.54438 | 2515 ft | 312 kts | 139° |
| 2026-04-30 02:16 | 39.40891 | -84.52596 | 2428 ft | 314 kts | 138° |
| 2026-04-30 02:16 | 39.39245 | -84.50729 | 2323 ft | 315 kts | 137° |
| 2026-04-30 02:16 | 39.37613 | -84.48839 | 2211 ft | 316 kts | 137° |
| 2026-04-30 02:16 | 39.36007 | -84.46921 | 2193 ft | 313 kts | 136° |
| 2026-04-30 02:17 | 39.34469 | -84.45011 | 2401 ft | 305 kts | 135° |
| 2026-04-30 02:17 | 39.32965 | -84.43120 | 2574 ft | 304 kts | 135° |
| 2026-04-30 02:17 | 39.31429 | -84.41182 | 2337 ft | 314 kts | 134° |
| 2026-04-30 02:17 | 39.29882 | -84.39188 | 2237 ft | 313 kts | 134° |
| 2026-04-30 02:18 | 39.28363 | -84.37200 | 2360 ft | 306 kts | 134° |
| 2026-04-30 02:18 | 39.26883 | -84.35281 | 2549 ft | 293 kts | 134° |
| 2026-04-30 02:18 | 39.25496 | -84.33475 | 2572 ft | 278 kts | 133° |
| 2026-04-30 02:18 | 39.24162 | -84.31718 | 2600 ft | 271 kts | 133° |
| 2026-04-30 02:19 | 39.22896 | -84.30029 | 2825 ft | 260 kts | 133° |
| 2026-04-30 02:19 | 39.21672 | -84.28329 | 3057 ft | 251 kts | 128° |
| 2026-04-30 02:19 | 39.20783 | -84.26468 | 3246 ft | 246 kts | 111° |
| 2026-04-30 02:19 | 39.20371 | -84.24350 | 3383 ft | 243 kts | 91° |
| 2026-04-30 02:20 | 39.20515 | -84.22212 | 3515 ft | 237 kts | 69° |
| 2026-04-30 02:20 | 39.21341 | -84.20450 | 3646 ft | 225 kts | 36° |
| 2026-04-30 02:20 | 39.22691 | -84.19685 | 3944 ft | 208 kts | 360° |
| 2026-04-30 02:20 | 39.24193 | -84.19977 | 3215 ft | 238 kts | 335° |
| 2026-04-30 02:21 | 39.25387 | -84.21367 | 3172 ft | 229 kts | 305° |
| 2026-04-30 02:21 | 39.26214 | -84.23083 | 3046 ft | 222 kts | 302° |
| 2026-04-30 02:21 | 39.26974 | -84.24763 | 3064 ft | 214 kts | 301° |
| 2026-04-30 02:21 | 39.27620 | -84.26447 | 3082 ft | 209 kts | 291° |
| 2026-04-30 02:22 | 39.27876 | -84.28305 | 2634 ft | 217 kts | 281° |
| 2026-04-30 02:22 | 39.28058 | -84.30243 | 2263 ft | 220 kts | 280° |
| 2026-04-30 02:22 | 39.27999 | -84.32233 | 1756 ft | 232 kts | 262° |
| 2026-04-30 02:22 | 39.27405 | -84.34113 | 1712 ft | 220 kts | 241° |
| 2026-04-30 02:23 | 39.26658 | -84.35732 | 1686 ft | 202 kts | 255° |
| 2026-04-30 02:23 | 39.26644 | -84.37480 | 1501 ft | 196 kts | 292° |
| 2026-04-30 02:23 | 39.27500 | -84.38768 | 1487 ft | 193 kts | 332° |
| 2026-04-30 02:23 | 39.28804 | -84.39034 | 1661 ft | 188 kts | 3° |
| 2026-04-30 02:24 | 39.30000 | -84.38676 | 2202 ft | 166 kts | 15° |
| 2026-04-30 02:24 | 39.31123 | -84.38087 | 2035 ft | 186 kts | 20° |
| 2026-04-30 02:24 | 39.32266 | -84.37215 | 1921 ft | 197 kts | 33° |
| 2026-04-30 02:24 | 39.33168 | -84.35921 | 2066 ft | 193 kts | 52° |
| 2026-04-30 02:25 | 39.33614 | -84.34314 | 2231 ft | 192 kts | 78° |
| 2026-04-30 02:25 | 39.33438 | -84.32580 | 2190 ft | 202 kts | 103° |
| 2026-04-30 02:25 | 39.32861 | -84.30859 | 1978 ft | 212 kts | 117° |
| 2026-04-30 02:25 | 39.32013 | -84.29343 | 2089 ft | 205 kts | 128° |
| 2026-04-30 02:26 | 39.31232 | -84.27878 | 2388 ft | 200 kts | 103° |
| 2026-04-30 02:26 | 39.31392 | -84.25988 | 2366 ft | 232 kts | 58° |
| 2026-04-30 02:26 | 39.32579 | -84.24432 | 1911 ft | 261 kts | 26° |
| 2026-04-30 02:26 | 39.34361 | -84.23965 | 1502 ft | 274 kts | 344° |
| 2026-04-30 02:27 | 39.35966 | -84.25217 | 1643 ft | 269 kts | 314° |
| 2026-04-30 02:27 | 39.36799 | -84.27358 | 1760 ft | 271 kts | 284° |
| 2026-04-30 02:27 | 39.36476 | -84.29700 | 1975 ft | 279 kts | 237° |
| 2026-04-30 02:27 | 39.34811 | -84.31085 | 1846 ft | 302 kts | 196° |
| 2026-04-30 02:28 | 39.32723 | -84.31190 | 2094 ft | 297 kts | 178° |
| 2026-04-30 02:28 | 39.30715 | -84.30894 | 2528 ft | 290 kts | 175° |
| 2026-04-30 02:28 | 39.28672 | -84.30648 | 2535 ft | 298 kts | 178° |
| 2026-04-30 02:28 | 39.26635 | -84.30459 | 2574 ft | 301 kts | 178° |
| 2026-04-30 02:29 | 39.24517 | -84.30268 | 2622 ft | 303 kts | 178° |
| 2026-04-30 02:29 | 39.22401 | -84.30071 | 2702 ft | 303 kts | 178° |
| 2026-04-30 02:29 | 39.20329 | -84.29908 | 2975 ft | 295 kts | 183° |
| 2026-04-30 02:29 | 39.18296 | -84.30259 | 2984 ft | 296 kts | 195° |
| 2026-04-30 02:30 | 39.16325 | -84.30996 | 3172 ft | 292 kts | 202° |
| 2026-04-30 02:30 | 39.14395 | -84.31870 | 3084 ft | 298 kts | 202° |
| 2026-04-30 02:30 | 39.12454 | -84.32776 | 2901 ft | 296 kts | 203° |
| 2026-04-30 02:30 | 39.10522 | -84.33683 | 2838 ft | 292 kts | 203° |
| 2026-04-30 02:31 | 39.08779 | -84.34478 | 2651 ft | 240 kts | 203° |
| 2026-04-30 02:31 | 39.07343 | -84.35148 | 2460 ft | 207 kts | 206° |
| 2026-04-30 02:31 | 39.06082 | -84.35786 | 2236 ft | 187 kts | 206° |
| 2026-04-30 02:31 | 39.04804 | -84.36463 | 1988 ft | 221 kts | 207° |
| 2026-04-30 02:32 | 39.03566 | -84.37623 | 2178 ft | 223 kts | 237° |
| 2026-04-30 02:32 | 39.03164 | -84.39446 | 2119 ft | 201 kts | 280° |
| 2026-04-30 02:32 | 39.03678 | -84.40891 | 2069 ft | 161 kts | 314° |
| 2026-04-30 02:32 | 39.04399 | -84.41824 | 1777 ft | 143 kts | 317° |
| 2026-04-30 02:33 | 39.05160 | -84.42656 | 1566 ft | 141 kts | 328° |
| 2026-04-30 02:33 | 39.06074 | -84.43023 | 1288 ft | 143 kts | 351° |
| 2026-04-30 02:33 | 39.07080 | -84.42941 | 1003 ft | 146 kts | 9° |
| 2026-04-30 02:33 | 39.08040 | -84.42549 | 810 ft | 146 kts | 17° |
| 2026-04-30 02:34 | 39.08909 | -84.42120 | 588 ft | 122 kts | 17° |
| 2026-04-30 02:34 | 39.09629 | -84.41782 | 484 ft | 97 kts | 18° |
| 2026-04-30 02:34 | 39.10144 | -84.41529 | 485 ft | 65 kts | 21° |
| 2026-04-30 02:34 | 39.10380 | -84.41413 | 484 ft | 21 kts | 16° |
| 2026-04-30 02:35 | 39.10537 | -84.41426 | 486 ft | 26 kts | 334° |
| 2026-04-30 02:35 | 39.10671 | -84.41521 | 480 ft | 16 kts | 332° |
| 2026-04-30 02:35 | 39.10761 | -84.41581 | 478 ft | 19 kts | 333° |
| 2026-04-30 02:35 | 39.10838 | -84.41641 | 483 ft | 7 kts | 294° |
| 2026-04-30 02:36 | 39.10794 | -84.41757 | 481 ft | 25 kts | 242° |
| 2026-04-30 02:36 | 39.10716 | -84.41947 | 481 ft | 1 kts | 243° |
| 2026-04-30 02:36 | 39.10704 | -84.41976 | 479 ft | 10 kts | 242° |
| 2026-04-30 02:36 | 39.10683 | -84.42080 | 482 ft | 10 kts | 311° |
| 2026-04-30 02:37 | 39.10762 | -84.42092 | 486 ft | 15 kts | 0° |
| 2026-04-30 02:37 | 39.10835 | -84.42052 | 488 ft | 1 kts | 42° |